sensor_id;sensor_type;location;lat;lon;timestamp;P1;durP1;ratioP1;P2;durP2;ratioP2
69511;SDS011;70777;52.034;4.644;2023-07-20T00:00:38;17.80;;;11.25;;
69511;SDS011;70777;52.034;4.644;2023-07-20T00:03:13;17.92;;;11.52;;
69511;SDS011;70777;52.034;4.644;2023-07-20T00:05:44;17.83;;;11.65;;
69511;SDS011;70777;52.034;4.644;2023-07-20T00:08:13;21.02;;;11.35;;
69511;SDS011;70777;52.034;4.644;2023-07-20T00:10:39;20.52;;;12.40;;
69511;SDS011;70777;52.034;4.644;2023-07-20T00:15:31;18.77;;;10.90;;
69511;SDS011;70777;52.034;4.644;2023-07-20T00:17:56;16.60;;;10.63;;
69511;SDS011;70777;52.034;4.644;2023-07-20T00:20:23;18.65;;;11.77;;
69511;SDS011;70777;52.034;4.644;2023-07-20T00:22:49;19.38;;;12.10;;
69511;SDS011;70777;52.034;4.644;2023-07-20T00:25:16;19.05;;;11.73;;
69511;SDS011;70777;52.034;4.644;2023-07-20T00:27:41;19.52;;;12.60;;
69511;SDS011;70777;52.034;4.644;2023-07-20T00:30:07;19.77;;;11.77;;
69511;SDS011;70777;52.034;4.644;2023-07-20T00:32:33;22.13;;;14.02;;
69511;SDS011;70777;52.034;4.644;2023-07-20T00:34:58;20.45;;;11.80;;
69511;SDS011;70777;52.034;4.644;2023-07-20T00:37:23;20.10;;;12.70;;
69511;SDS011;70777;52.034;4.644;2023-07-20T00:39:49;18.30;;;11.52;;
69511;SDS011;70777;52.034;4.644;2023-07-20T00:42:14;17.80;;;10.88;;
69511;SDS011;70777;52.034;4.644;2023-07-20T00:44:39;18.10;;;10.10;;
69511;SDS011;70777;52.034;4.644;2023-07-20T00:47:05;12.68;;;8.00;;
69511;SDS011;70777;52.034;4.644;2023-07-20T00:49:31;12.70;;;7.47;;
69511;SDS011;70777;52.034;4.644;2023-07-20T00:51:56;27.08;;;8.30;;
69511;SDS011;70777;52.034;4.644;2023-07-20T00:54:22;10.48;;;5.97;;
69511;SDS011;70777;52.034;4.644;2023-07-20T00:56:49;11.52;;;6.70;;
69511;SDS011;70777;52.034;4.644;2023-07-20T00:59:15;9.43;;;6.13;;
69511;SDS011;70777;52.034;4.644;2023-07-20T01:01:41;8.52;;;5.05;;
69511;SDS011;70777;52.034;4.644;2023-07-20T01:04:06;6.25;;;4.45;;
69511;SDS011;70777;52.034;4.644;2023-07-20T01:09:28;7.07;;;4.80;;
69511;SDS011;70777;52.034;4.644;2023-07-20T01:14:28;8.77;;;4.85;;
69511;SDS011;70777;52.034;4.644;2023-07-20T01:16:54;7.10;;;4.32;;
69511;SDS011;70777;52.034;4.644;2023-07-20T01:19:19;5.20;;;3.53;;
69511;SDS011;70777;52.034;4.644;2023-07-20T01:21:48;8.05;;;4.35;;
69511;SDS011;70777;52.034;4.644;2023-07-20T01:32:23;7.30;;;4.43;;
69511;SDS011;70777;52.034;4.644;2023-07-20T01:34:49;8.20;;;4.73;;
69511;SDS011;70777;52.034;4.644;2023-07-20T01:37:20;6.32;;;4.30;;
69511;SDS011;70777;52.034;4.644;2023-07-20T01:39:51;9.15;;;4.25;;
69511;SDS011;70777;52.034;4.644;2023-07-20T01:42:20;5.18;;;3.67;;
69511;SDS011;70777;52.034;4.644;2023-07-20T01:44:47;6.13;;;3.97;;
69511;SDS011;70777;52.034;4.644;2023-07-20T01:47:12;6.55;;;4.32;;
69511;SDS011;70777;52.034;4.644;2023-07-20T01:49:38;7.68;;;4.80;;
69511;SDS011;70777;52.034;4.644;2023-07-20T01:52:03;7.38;;;4.57;;
69511;SDS011;70777;52.034;4.644;2023-07-20T01:54:29;6.05;;;4.43;;
69511;SDS011;70777;52.034;4.644;2023-07-20T01:56:55;6.88;;;4.50;;
69511;SDS011;70777;52.034;4.644;2023-07-20T01:59:20;9.73;;;5.80;;
69511;SDS011;70777;52.034;4.644;2023-07-20T02:01:46;11.13;;;5.60;;
69511;SDS011;70777;52.034;4.644;2023-07-20T02:04:11;9.68;;;6.05;;
69511;SDS011;70777;52.034;4.644;2023-07-20T02:06:37;13.63;;;7.10;;
69511;SDS011;70777;52.034;4.644;2023-07-20T02:09:03;11.32;;;7.60;;
69511;SDS011;70777;52.034;4.644;2023-07-20T02:11:29;11.18;;;5.95;;
69511;SDS011;70777;52.034;4.644;2023-07-20T02:13:57;9.05;;;5.53;;
69511;SDS011;70777;52.034;4.644;2023-07-20T02:16:22;8.05;;;5.80;;
69511;SDS011;70777;52.034;4.644;2023-07-20T02:18:48;7.50;;;5.70;;
69511;SDS011;70777;52.034;4.644;2023-07-20T02:21:13;10.90;;;6.78;;
69511;SDS011;70777;52.034;4.644;2023-07-20T02:23:39;11.45;;;6.35;;
69511;SDS011;70777;52.034;4.644;2023-07-20T02:26:04;10.52;;;6.88;;
69511;SDS011;70777;52.034;4.644;2023-07-20T02:28:30;9.90;;;7.07;;
69511;SDS011;70777;52.034;4.644;2023-07-20T02:30:55;13.35;;;9.00;;
69511;SDS011;70777;52.034;4.644;2023-07-20T02:33:21;12.52;;;7.85;;
69511;SDS011;70777;52.034;4.644;2023-07-20T02:35:46;8.50;;;6.25;;
69511;SDS011;70777;52.034;4.644;2023-07-20T02:38:12;10.50;;;7.78;;
69511;SDS011;70777;52.034;4.644;2023-07-20T02:40:37;16.80;;;10.32;;
69511;SDS011;70777;52.034;4.644;2023-07-20T02:43:03;21.83;;;10.68;;
69511;SDS011;70777;52.034;4.644;2023-07-20T02:45:28;16.65;;;9.40;;
69511;SDS011;70777;52.034;4.644;2023-07-20T02:47:54;14.05;;;9.07;;
69511;SDS011;70777;52.034;4.644;2023-07-20T02:50:19;15.85;;;9.50;;
69511;SDS011;70777;52.034;4.644;2023-07-20T02:52:45;11.02;;;7.88;;
69511;SDS011;70777;52.034;4.644;2023-07-20T02:55:10;11.98;;;7.03;;
69511;SDS011;70777;52.034;4.644;2023-07-20T02:57:36;11.77;;;7.28;;
69511;SDS011;70777;52.034;4.644;2023-07-20T03:00:02;15.55;;;9.63;;
69511;SDS011;70777;52.034;4.644;2023-07-20T03:02:29;12.40;;;8.52;;
69511;SDS011;70777;52.034;4.644;2023-07-20T03:04:55;9.52;;;6.88;;
69511;SDS011;70777;52.034;4.644;2023-07-20T03:07:24;9.60;;;6.10;;
69511;SDS011;70777;52.034;4.644;2023-07-20T03:09:49;9.65;;;6.43;;
69511;SDS011;70777;52.034;4.644;2023-07-20T03:12:15;8.65;;;6.10;;
69511;SDS011;70777;52.034;4.644;2023-07-20T03:14:40;13.75;;;6.65;;
69511;SDS011;70777;52.034;4.644;2023-07-20T03:17:05;9.70;;;5.97;;
69511;SDS011;70777;52.034;4.644;2023-07-20T03:19:31;8.70;;;6.07;;
69511;SDS011;70777;52.034;4.644;2023-07-20T03:21:56;8.02;;;5.40;;
69511;SDS011;70777;52.034;4.644;2023-07-20T03:24:22;9.52;;;5.70;;
69511;SDS011;70777;52.034;4.644;2023-07-20T03:26:48;7.57;;;4.68;;
69511;SDS011;70777;52.034;4.644;2023-07-20T03:29:14;8.48;;;4.65;;
69511;SDS011;70777;52.034;4.644;2023-07-20T03:31:41;8.13;;;4.85;;
69511;SDS011;70777;52.034;4.644;2023-07-20T03:34:06;9.18;;;4.95;;
69511;SDS011;70777;52.034;4.644;2023-07-20T03:36:33;8.73;;;4.70;;
69511;SDS011;70777;52.034;4.644;2023-07-20T03:39:05;6.90;;;4.43;;
69511;SDS011;70777;52.034;4.644;2023-07-20T03:41:30;8.82;;;5.72;;
69511;SDS011;70777;52.034;4.644;2023-07-20T03:43:57;8.55;;;5.10;;
69511;SDS011;70777;52.034;4.644;2023-07-20T03:46:22;8.70;;;5.85;;
69511;SDS011;70777;52.034;4.644;2023-07-20T03:48:48;6.93;;;4.53;;
69511;SDS011;70777;52.034;4.644;2023-07-20T03:51:13;6.07;;;4.00;;
69511;SDS011;70777;52.034;4.644;2023-07-20T03:53:39;6.32;;;4.20;;
69511;SDS011;70777;52.034;4.644;2023-07-20T03:56:04;5.78;;;4.05;;
69511;SDS011;70777;52.034;4.644;2023-07-20T03:58:30;7.85;;;4.78;;
69511;SDS011;70777;52.034;4.644;2023-07-20T04:00:59;6.22;;;4.43;;
69511;SDS011;70777;52.034;4.644;2023-07-20T04:03:24;8.85;;;4.15;;
69511;SDS011;70777;52.034;4.644;2023-07-20T04:05:52;7.00;;;5.03;;
69511;SDS011;70777;52.034;4.644;2023-07-20T04:08:20;5.78;;;3.58;;
69511;SDS011;70777;52.034;4.644;2023-07-20T04:10:47;7.22;;;4.50;;
69511;SDS011;70777;52.034;4.644;2023-07-20T04:13:13;7.03;;;4.47;;
69511;SDS011;70777;52.034;4.644;2023-07-20T04:15:38;8.45;;;4.72;;
69511;SDS011;70777;52.034;4.644;2023-07-20T04:18:04;7.50;;;4.10;;
69511;SDS011;70777;52.034;4.644;2023-07-20T04:20:29;6.82;;;3.97;;
69511;SDS011;70777;52.034;4.644;2023-07-20T04:22:55;5.53;;;3.33;;
69511;SDS011;70777;52.034;4.644;2023-07-20T04:25:22;4.57;;;3.47;;
69511;SDS011;70777;52.034;4.644;2023-07-20T04:27:47;8.13;;;4.45;;
69511;SDS011;70777;52.034;4.644;2023-07-20T04:30:17;6.70;;;4.20;;
69511;SDS011;70777;52.034;4.644;2023-07-20T04:32:47;7.38;;;3.40;;
69511;SDS011;70777;52.034;4.644;2023-07-20T04:35:44;4.72;;;3.55;;
69511;SDS011;70777;52.034;4.644;2023-07-20T04:38:12;4.90;;;3.15;;
69511;SDS011;70777;52.034;4.644;2023-07-20T04:40:37;7.55;;;4.28;;
69511;SDS011;70777;52.034;4.644;2023-07-20T04:43:03;9.02;;;4.90;;
69511;SDS011;70777;52.034;4.644;2023-07-20T04:45:28;6.32;;;3.72;;
69511;SDS011;70777;52.034;4.644;2023-07-20T04:47:55;6.00;;;3.70;;
69511;SDS011;70777;52.034;4.644;2023-07-20T04:50:20;5.25;;;3.80;;
69511;SDS011;70777;52.034;4.644;2023-07-20T04:52:46;6.57;;;4.00;;
69511;SDS011;70777;52.034;4.644;2023-07-20T04:55:13;7.57;;;4.50;;
69511;SDS011;70777;52.034;4.644;2023-07-20T04:57:45;7.40;;;3.97;;
69511;SDS011;70777;52.034;4.644;2023-07-20T05:00:11;7.18;;;5.20;;
69511;SDS011;70777;52.034;4.644;2023-07-20T05:05:03;6.37;;;4.10;;
69511;SDS011;70777;52.034;4.644;2023-07-20T05:09:56;4.80;;;3.40;;
69511;SDS011;70777;52.034;4.644;2023-07-20T05:12:25;4.40;;;3.20;;
69511;SDS011;70777;52.034;4.644;2023-07-20T05:14:51;4.65;;;3.45;;
69511;SDS011;70777;52.034;4.644;2023-07-20T05:17:26;5.63;;;4.03;;
69511;SDS011;70777;52.034;4.644;2023-07-20T05:19:51;6.55;;;3.30;;
69511;SDS011;70777;52.034;4.644;2023-07-20T05:22:17;5.07;;;3.20;;
69511;SDS011;70777;52.034;4.644;2023-07-20T05:24:42;6.55;;;3.63;;
69511;SDS011;70777;52.034;4.644;2023-07-20T05:27:08;6.13;;;3.70;;
69511;SDS011;70777;52.034;4.644;2023-07-20T05:29:34;6.78;;;4.32;;
69511;SDS011;70777;52.034;4.644;2023-07-20T05:32:00;9.97;;;4.10;;
69511;SDS011;70777;52.034;4.644;2023-07-20T05:34:27;5.30;;;3.72;;
69511;SDS011;70777;52.034;4.644;2023-07-20T05:36:53;6.18;;;4.07;;
69511;SDS011;70777;52.034;4.644;2023-07-20T05:39:22;7.07;;;3.88;;
69511;SDS011;70777;52.034;4.644;2023-07-20T05:41:51;8.43;;;4.25;;
69511;SDS011;70777;52.034;4.644;2023-07-20T05:44:16;7.55;;;4.45;;
69511;SDS011;70777;52.034;4.644;2023-07-20T05:46:42;6.57;;;4.00;;
69511;SDS011;70777;52.034;4.644;2023-07-20T05:49:08;6.88;;;2.67;;
69511;SDS011;70777;52.034;4.644;2023-07-20T05:51:36;2.38;;;1.63;;
69511;SDS011;70777;52.034;4.644;2023-07-20T05:54:02;3.35;;;1.52;;
69511;SDS011;70777;52.034;4.644;2023-07-20T05:56:28;2.78;;;1.80;;
69511;SDS011;70777;52.034;4.644;2023-07-20T05:58:53;2.65;;;1.60;;
69511;SDS011;70777;52.034;4.644;2023-07-20T06:01:19;4.18;;;1.98;;
69511;SDS011;70777;52.034;4.644;2023-07-20T06:03:45;3.28;;;1.27;;
69511;SDS011;70777;52.034;4.644;2023-07-20T06:06:10;2.78;;;1.40;;
69511;SDS011;70777;52.034;4.644;2023-07-20T06:08:37;2.58;;;1.35;;
69511;SDS011;70777;52.034;4.644;2023-07-20T06:11:04;4.00;;;0.98;;
69511;SDS011;70777;52.034;4.644;2023-07-20T06:13:30;2.22;;;0.90;;
69511;SDS011;70777;52.034;4.644;2023-07-20T06:15:56;1.87;;;0.90;;
69511;SDS011;70777;52.034;4.644;2023-07-20T06:18:23;1.90;;;0.70;;
69511;SDS011;70777;52.034;4.644;2023-07-20T06:20:52;3.30;;;1.00;;
69511;SDS011;70777;52.034;4.644;2023-07-20T06:23:18;2.28;;;0.80;;
69511;SDS011;70777;52.034;4.644;2023-07-20T06:25:44;2.65;;;0.90;;
69511;SDS011;70777;52.034;4.644;2023-07-20T06:28:13;2.47;;;1.00;;
69511;SDS011;70777;52.034;4.644;2023-07-20T06:30:39;1.02;;;0.60;;
69511;SDS011;70777;52.034;4.644;2023-07-20T06:33:05;3.30;;;1.40;;
69511;SDS011;70777;52.034;4.644;2023-07-20T06:35:32;3.20;;;1.08;;
69511;SDS011;70777;52.034;4.644;2023-07-20T06:37:57;2.93;;;1.17;;
69511;SDS011;70777;52.034;4.644;2023-07-20T06:40:25;3.38;;;1.25;;
69511;SDS011;70777;52.034;4.644;2023-07-20T06:42:51;4.87;;;1.20;;
69511;SDS011;70777;52.034;4.644;2023-07-20T06:45:16;3.73;;;1.20;;
69511;SDS011;70777;52.034;4.644;2023-07-20T06:47:42;3.73;;;1.17;;
69511;SDS011;70777;52.034;4.644;2023-07-20T06:50:08;3.10;;;1.33;;
69511;SDS011;70777;52.034;4.644;2023-07-20T06:52:37;2.53;;;1.10;;
69511;SDS011;70777;52.034;4.644;2023-07-20T06:55:03;1.73;;;1.00;;
69511;SDS011;70777;52.034;4.644;2023-07-20T06:59:54;1.58;;;1.00;;
69511;SDS011;70777;52.034;4.644;2023-07-20T07:02:20;2.10;;;0.80;;
69511;SDS011;70777;52.034;4.644;2023-07-20T07:04:47;3.30;;;0.90;;
69511;SDS011;70777;52.034;4.644;2023-07-20T07:07:15;1.10;;;0.80;;
69511;SDS011;70777;52.034;4.644;2023-07-20T07:09:41;2.03;;;0.85;;
69511;SDS011;70777;52.034;4.644;2023-07-20T07:12:10;2.90;;;1.10;;
69511;SDS011;70777;52.034;4.644;2023-07-20T07:14:36;1.67;;;0.70;;
69511;SDS011;70777;52.034;4.644;2023-07-20T07:17:01;2.13;;;0.80;;
69511;SDS011;70777;52.034;4.644;2023-07-20T07:19:27;1.75;;;0.90;;
69511;SDS011;70777;52.034;4.644;2023-07-20T07:21:53;2.10;;;1.00;;
69511;SDS011;70777;52.034;4.644;2023-07-20T07:24:18;2.07;;;0.93;;
69511;SDS011;70777;52.034;4.644;2023-07-20T07:26:44;2.50;;;0.97;;
69511;SDS011;70777;52.034;4.644;2023-07-20T07:29:10;3.00;;;0.90;;
69511;SDS011;70777;52.034;4.644;2023-07-20T07:31:36;1.42;;;0.80;;
69511;SDS011;70777;52.034;4.644;2023-07-20T07:34:01;1.80;;;0.97;;
69511;SDS011;70777;52.034;4.644;2023-07-20T07:36:28;1.08;;;0.68;;
69511;SDS011;70777;52.034;4.644;2023-07-20T07:38:53;1.47;;;0.70;;
69511;SDS011;70777;52.034;4.644;2023-07-20T07:41:19;3.38;;;0.80;;
69511;SDS011;70777;52.034;4.644;2023-07-20T07:43:46;0.90;;;0.65;;
69511;SDS011;70777;52.034;4.644;2023-07-20T07:46:18;1.48;;;0.77;;
69511;SDS011;70777;52.034;4.644;2023-07-20T07:48:43;3.97;;;0.80;;
69511;SDS011;70777;52.034;4.644;2023-07-20T07:51:12;1.65;;;0.60;;
69511;SDS011;70777;52.034;4.644;2023-07-20T07:53:40;1.60;;;0.82;;
69511;SDS011;70777;52.034;4.644;2023-07-20T07:56:07;1.85;;;0.80;;
69511;SDS011;70777;52.034;4.644;2023-07-20T07:58:35;2.85;;;0.75;;
69511;SDS011;70777;52.034;4.644;2023-07-20T08:01:01;1.73;;;0.65;;
69511;SDS011;70777;52.034;4.644;2023-07-20T08:03:36;0.98;;;0.50;;
69511;SDS011;70777;52.034;4.644;2023-07-20T08:06:03;2.10;;;0.93;;
69511;SDS011;70777;52.034;4.644;2023-07-20T08:08:29;2.72;;;0.95;;
69511;SDS011;70777;52.034;4.644;2023-07-20T08:10:56;1.85;;;1.40;;
69511;SDS011;70777;52.034;4.644;2023-07-20T08:13:25;1.60;;;1.33;;
69511;SDS011;70777;52.034;4.644;2023-07-20T08:15:56;2.97;;;1.00;;
69511;SDS011;70777;52.034;4.644;2023-07-20T08:18:21;2.65;;;0.90;;
69511;SDS011;70777;52.034;4.644;2023-07-20T08:20:49;2.03;;;1.10;;
69511;SDS011;70777;52.034;4.644;2023-07-20T08:23:15;2.58;;;1.08;;
69511;SDS011;70777;52.034;4.644;2023-07-20T08:25:48;2.25;;;1.27;;
69511;SDS011;70777;52.034;4.644;2023-07-20T08:28:14;1.13;;;0.95;;
69511;SDS011;70777;52.034;4.644;2023-07-20T08:30:41;3.78;;;1.17;;
69511;SDS011;70777;52.034;4.644;2023-07-20T08:33:15;2.35;;;1.20;;
69511;SDS011;70777;52.034;4.644;2023-07-20T08:35:50;1.23;;;1.10;;
69511;SDS011;70777;52.034;4.644;2023-07-20T08:38:16;1.00;;;0.90;;
69511;SDS011;70777;52.034;4.644;2023-07-20T08:40:45;2.28;;;0.77;;
69511;SDS011;70777;52.034;4.644;2023-07-20T08:43:15;1.65;;;0.80;;
69511;SDS011;70777;52.034;4.644;2023-07-20T08:45:47;1.50;;;1.10;;
69511;SDS011;70777;52.034;4.644;2023-07-20T08:48:14;1.40;;;1.15;;
69511;SDS011;70777;52.034;4.644;2023-07-20T08:53:10;2.85;;;0.60;;
69511;SDS011;70777;52.034;4.644;2023-07-20T08:55:51;2.35;;;1.00;;
69511;SDS011;70777;52.034;4.644;2023-07-20T08:58:23;1.60;;;0.98;;
69511;SDS011;70777;52.034;4.644;2023-07-20T09:00:50;2.78;;;0.73;;
69511;SDS011;70777;52.034;4.644;2023-07-20T09:03:24;2.42;;;0.80;;
69511;SDS011;70777;52.034;4.644;2023-07-20T09:05:50;2.90;;;0.85;;
69511;SDS011;70777;52.034;4.644;2023-07-20T09:08:20;1.75;;;0.60;;
69511;SDS011;70777;52.034;4.644;2023-07-20T09:10:45;1.77;;;0.98;;
69511;SDS011;70777;52.034;4.644;2023-07-20T09:13:15;1.67;;;0.87;;
69511;SDS011;70777;52.034;4.644;2023-07-20T09:15:53;2.60;;;0.98;;
69511;SDS011;70777;52.034;4.644;2023-07-20T09:18:29;1.92;;;0.70;;
69511;SDS011;70777;52.034;4.644;2023-07-20T09:21:04;2.25;;;0.60;;
69511;SDS011;70777;52.034;4.644;2023-07-20T09:23:34;5.60;;;0.90;;
69511;SDS011;70777;52.034;4.644;2023-07-20T09:26:03;1.92;;;0.70;;
69511;SDS011;70777;52.034;4.644;2023-07-20T09:28:51;2.63;;;0.98;;
69511;SDS011;70777;52.034;4.644;2023-07-20T09:33:44;3.03;;;1.08;;
69511;SDS011;70777;52.034;4.644;2023-07-20T09:36:13;2.30;;;1.10;;
69511;SDS011;70777;52.034;4.644;2023-07-20T09:38:45;2.60;;;1.08;;
69511;SDS011;70777;52.034;4.644;2023-07-20T09:41:20;1.17;;;0.70;;
69511;SDS011;70777;52.034;4.644;2023-07-20T09:43:46;0.98;;;0.75;;
69511;SDS011;70777;52.034;4.644;2023-07-20T09:46:19;3.88;;;1.10;;
69511;SDS011;70777;52.034;4.644;2023-07-20T09:48:54;2.03;;;0.90;;
69511;SDS011;70777;52.034;4.644;2023-07-20T09:51:21;1.27;;;0.80;;
69511;SDS011;70777;52.034;4.644;2023-07-20T09:53:52;1.10;;;1.00;;
69511;SDS011;70777;52.034;4.644;2023-07-20T09:59:42;2.22;;;1.05;;
69511;SDS011;70777;52.034;4.644;2023-07-20T10:02:19;2.33;;;1.00;;
69511;SDS011;70777;52.034;4.644;2023-07-20T10:04:50;2.85;;;0.82;;
69511;SDS011;70777;52.034;4.644;2023-07-20T10:07:19;1.27;;;0.77;;
69511;SDS011;70777;52.034;4.644;2023-07-20T10:09:48;2.55;;;0.95;;
69511;SDS011;70777;52.034;4.644;2023-07-20T10:12:17;0.60;;;0.60;;
69511;SDS011;70777;52.034;4.644;2023-07-20T10:14:52;2.15;;;0.90;;
69511;SDS011;70777;52.034;4.644;2023-07-20T10:17:24;2.53;;;0.85;;
69511;SDS011;70777;52.034;4.644;2023-07-20T10:19:51;1.27;;;0.70;;
69511;SDS011;70777;52.034;4.644;2023-07-20T10:22:24;2.05;;;0.70;;
69511;SDS011;70777;52.034;4.644;2023-07-20T10:25:00;1.48;;;0.85;;
69511;SDS011;70777;52.034;4.644;2023-07-20T10:27:26;2.20;;;0.80;;
69511;SDS011;70777;52.034;4.644;2023-07-20T10:29:52;1.73;;;0.80;;
69511;SDS011;70777;52.034;4.644;2023-07-20T10:32:20;2.20;;;0.60;;
69511;SDS011;70777;52.034;4.644;2023-07-20T10:34:52;0.83;;;0.70;;
69511;SDS011;70777;52.034;4.644;2023-07-20T10:45:39;1.30;;;0.80;;
69511;SDS011;70777;52.034;4.644;2023-07-20T10:51:11;1.98;;;1.00;;
69511;SDS011;70777;52.034;4.644;2023-07-20T10:53:40;1.95;;;0.80;;
69511;SDS011;70777;52.034;4.644;2023-07-20T10:56:19;1.40;;;0.70;;
69511;SDS011;70777;52.034;4.644;2023-07-20T10:58:48;1.20;;;0.60;;
69511;SDS011;70777;52.034;4.644;2023-07-20T11:01:15;3.40;;;1.10;;
69511;SDS011;70777;52.034;4.644;2023-07-20T11:03:42;0.70;;;0.60;;
69511;SDS011;70777;52.034;4.644;2023-07-20T11:08:53;2.13;;;0.90;;
69511;SDS011;70777;52.034;4.644;2023-07-20T11:11:50;1.63;;;0.55;;
69511;SDS011;70777;52.034;4.644;2023-07-20T11:14:40;0.70;;;0.50;;
69511;SDS011;70777;52.034;4.644;2023-07-20T11:17:13;1.92;;;0.80;;
69511;SDS011;70777;52.034;4.644;2023-07-20T11:19:42;3.20;;;0.60;;
69511;SDS011;70777;52.034;4.644;2023-07-20T11:22:11;1.10;;;0.60;;
69511;SDS011;70777;52.034;4.644;2023-07-20T11:24:41;1.80;;;0.70;;
69511;SDS011;70777;52.034;4.644;2023-07-20T11:27:07;1.02;;;0.50;;
69511;SDS011;70777;52.034;4.644;2023-07-20T11:29:34;1.50;;;0.57;;
69511;SDS011;70777;52.034;4.644;2023-07-20T11:32:00;0.88;;;0.45;;
69511;SDS011;70777;52.034;4.644;2023-07-20T11:34:27;2.08;;;0.60;;
69511;SDS011;70777;52.034;4.644;2023-07-20T11:36:58;1.92;;;1.10;;
69511;SDS011;70777;52.034;4.644;2023-07-20T11:39:24;0.50;;;0.50;;
69511;SDS011;70777;52.034;4.644;2023-07-20T11:41:53;2.25;;;0.60;;
69511;SDS011;70777;52.034;4.644;2023-07-20T11:44:22;1.40;;;0.70;;
69511;SDS011;70777;52.034;4.644;2023-07-20T11:47:02;1.15;;;0.68;;
69511;SDS011;70777;52.034;4.644;2023-07-20T11:49:42;1.40;;;0.73;;
69511;SDS011;70777;52.034;4.644;2023-07-20T11:52:15;1.90;;;0.70;;
69511;SDS011;70777;52.034;4.644;2023-07-20T11:54:42;1.00;;;0.70;;
69511;SDS011;70777;52.034;4.644;2023-07-20T11:57:21;3.35;;;0.93;;
69511;SDS011;70777;52.034;4.644;2023-07-20T11:59:57;1.63;;;0.73;;
69511;SDS011;70777;52.034;4.644;2023-07-20T12:02:29;1.17;;;0.65;;
69511;SDS011;70777;52.034;4.644;2023-07-20T12:04:58;1.80;;;0.70;;
69511;SDS011;70777;52.034;4.644;2023-07-20T12:07:25;1.00;;;0.65;;
69511;SDS011;70777;52.034;4.644;2023-07-20T12:12:34;1.00;;;0.50;;
69511;SDS011;70777;52.034;4.644;2023-07-20T12:17:45;1.52;;;0.63;;
69511;SDS011;70777;52.034;4.644;2023-07-20T12:23:56;1.55;;;0.70;;
69511;SDS011;70777;52.034;4.644;2023-07-20T12:26:11;1.25;;;0.70;;
69511;SDS011;70777;52.034;4.644;2023-07-20T12:28:40;1.13;;;0.70;;
69511;SDS011;70777;52.034;4.644;2023-07-20T12:33:40;1.45;;;0.77;;
69511;SDS011;70777;52.034;4.644;2023-07-20T12:36:06;1.50;;;0.63;;
69511;SDS011;70777;52.034;4.644;2023-07-20T12:38:31;1.73;;;0.60;;
69511;SDS011;70777;52.034;4.644;2023-07-20T12:40:58;0.95;;;0.73;;
69511;SDS011;70777;52.034;4.644;2023-07-20T12:43:26;1.63;;;0.75;;
69511;SDS011;70777;52.034;4.644;2023-07-20T12:45:55;4.10;;;0.98;;
69511;SDS011;70777;52.034;4.644;2023-07-20T12:48:21;1.90;;;0.70;;
69511;SDS011;70777;52.034;4.644;2023-07-20T12:50:47;1.42;;;0.63;;
69511;SDS011;70777;52.034;4.644;2023-07-20T12:53:14;2.83;;;0.70;;
69511;SDS011;70777;52.034;4.644;2023-07-20T12:55:43;1.38;;;0.80;;
69511;SDS011;70777;52.034;4.644;2023-07-20T12:58:11;8.15;;;0.98;;
69511;SDS011;70777;52.034;4.644;2023-07-20T13:03:04;2.28;;;0.60;;
69511;SDS011;70777;52.034;4.644;2023-07-20T13:05:33;1.17;;;0.77;;
69511;SDS011;70777;52.034;4.644;2023-07-20T13:08:01;1.40;;;0.70;;
69511;SDS011;70777;52.034;4.644;2023-07-20T13:10:27;0.90;;;0.70;;
69511;SDS011;70777;52.034;4.644;2023-07-20T13:12:59;0.88;;;0.70;;
69511;SDS011;70777;52.034;4.644;2023-07-20T13:15:29;1.52;;;0.70;;
69511;SDS011;70777;52.034;4.644;2023-07-20T13:18:02;3.80;;;0.70;;
69511;SDS011;70777;52.034;4.644;2023-07-20T13:20:31;1.27;;;0.80;;
69511;SDS011;70777;52.034;4.644;2023-07-20T13:22:56;1.33;;;0.93;;
69511;SDS011;70777;52.034;4.644;2023-07-20T13:25:22;1.23;;;0.70;;
69511;SDS011;70777;52.034;4.644;2023-07-20T13:27:50;2.47;;;0.70;;
69511;SDS011;70777;52.034;4.644;2023-07-20T13:30:19;1.00;;;0.68;;
69511;SDS011;70777;52.034;4.644;2023-07-20T13:32:46;1.58;;;0.60;;
69511;SDS011;70777;52.034;4.644;2023-07-20T13:35:12;0.63;;;0.50;;
69511;SDS011;70777;52.034;4.644;2023-07-20T13:37:38;1.30;;;0.80;;
69511;SDS011;70777;52.034;4.644;2023-07-20T13:40:03;1.90;;;0.60;;
69511;SDS011;70777;52.034;4.644;2023-07-20T13:42:37;2.17;;;0.70;;
69511;SDS011;70777;52.034;4.644;2023-07-20T13:45:03;1.37;;;0.77;;
69511;SDS011;70777;52.034;4.644;2023-07-20T13:47:29;2.55;;;0.80;;
69511;SDS011;70777;52.034;4.644;2023-07-20T13:49:57;0.90;;;0.50;;
69511;SDS011;70777;52.034;4.644;2023-07-20T13:52:23;2.05;;;0.60;;
69511;SDS011;70777;52.034;4.644;2023-07-20T13:54:49;2.57;;;0.70;;
69511;SDS011;70777;52.034;4.644;2023-07-20T13:57:17;0.53;;;0.50;;
69511;SDS011;70777;52.034;4.644;2023-07-20T13:59:43;1.85;;;0.73;;
69511;SDS011;70777;52.034;4.644;2023-07-20T14:02:13;1.75;;;0.60;;
69511;SDS011;70777;52.034;4.644;2023-07-20T14:04:45;0.80;;;0.60;;
69511;SDS011;70777;52.034;4.644;2023-07-20T14:07:11;1.30;;;0.80;;
69511;SDS011;70777;52.034;4.644;2023-07-20T14:09:38;0.98;;;0.60;;
69511;SDS011;70777;52.034;4.644;2023-07-20T14:12:04;0.70;;;0.60;;
69511;SDS011;70777;52.034;4.644;2023-07-20T14:14:30;0.50;;;0.50;;
69511;SDS011;70777;52.034;4.644;2023-07-20T14:16:55;0.50;;;0.50;;
69511;SDS011;70777;52.034;4.644;2023-07-20T14:19:21;0.50;;;0.50;;
69511;SDS011;70777;52.034;4.644;2023-07-20T14:21:47;0.80;;;0.80;;
69511;SDS011;70777;52.034;4.644;2023-07-20T14:24:13;1.33;;;0.80;;
69511;SDS011;70777;52.034;4.644;2023-07-20T14:26:41;1.43;;;0.67;;
69511;SDS011;70777;52.034;4.644;2023-07-20T14:29:06;1.67;;;0.63;;
69511;SDS011;70777;52.034;4.644;2023-07-20T14:31:32;0.90;;;0.67;;
69511;SDS011;70777;52.034;4.644;2023-07-20T14:33:57;0.83;;;0.50;;
69511;SDS011;70777;52.034;4.644;2023-07-20T14:36:23;0.47;;;0.40;;
69511;SDS011;70777;52.034;4.644;2023-07-20T14:38:50;3.53;;;0.50;;
69511;SDS011;70777;52.034;4.644;2023-07-20T14:41:16;0.80;;;0.40;;
69511;SDS011;70777;52.034;4.644;2023-07-20T14:43:44;2.22;;;0.75;;
69511;SDS011;70777;52.034;4.644;2023-07-20T14:46:10;2.80;;;0.53;;
69511;SDS011;70777;52.034;4.644;2023-07-20T14:51:25;0.63;;;0.30;;
69511;SDS011;70777;52.034;4.644;2023-07-20T14:53:56;1.08;;;0.40;;
69511;SDS011;70777;52.034;4.644;2023-07-20T14:58:49;1.33;;;0.47;;
69511;SDS011;70777;52.034;4.644;2023-07-20T15:01:19;0.47;;;0.47;;
69511;SDS011;70777;52.034;4.644;2023-07-20T15:03:48;1.20;;;0.50;;
69511;SDS011;70777;52.034;4.644;2023-07-20T15:06:17;1.17;;;0.50;;
69511;SDS011;70777;52.034;4.644;2023-07-20T15:08:43;1.97;;;0.50;;
69511;SDS011;70777;52.034;4.644;2023-07-20T15:11:35;0.73;;;0.50;;
69511;SDS011;70777;52.034;4.644;2023-07-20T15:14:01;1.67;;;0.50;;
69511;SDS011;70777;52.034;4.644;2023-07-20T15:16:29;0.98;;;0.60;;
69511;SDS011;70777;52.034;4.644;2023-07-20T15:19:04;1.00;;;0.50;;
69511;SDS011;70777;52.034;4.644;2023-07-20T15:21:33;0.80;;;0.50;;
69511;SDS011;70777;52.034;4.644;2023-07-20T15:24:06;0.40;;;0.40;;
69511;SDS011;70777;52.034;4.644;2023-07-20T15:26:32;0.77;;;0.60;;
69511;SDS011;70777;52.034;4.644;2023-07-20T15:29:04;0.40;;;0.30;;
69511;SDS011;70777;52.034;4.644;2023-07-20T15:31:49;1.38;;;0.50;;
69511;SDS011;70777;52.034;4.644;2023-07-20T15:34:24;0.77;;;0.47;;
69511;SDS011;70777;52.034;4.644;2023-07-20T15:36:50;0.82;;;0.52;;
69511;SDS011;70777;52.034;4.644;2023-07-20T15:39:21;0.93;;;0.40;;
69511;SDS011;70777;52.034;4.644;2023-07-20T15:41:52;1.92;;;0.47;;
69511;SDS011;70777;52.034;4.644;2023-07-20T15:44:17;4.03;;;0.60;;
69511;SDS011;70777;52.034;4.644;2023-07-20T15:46:46;1.58;;;0.60;;
69511;SDS011;70777;52.034;4.644;2023-07-20T15:49:34;0.73;;;0.52;;
69511;SDS011;70777;52.034;4.644;2023-07-20T15:52:01;1.85;;;0.60;;
69511;SDS011;70777;52.034;4.644;2023-07-20T15:54:27;0.45;;;0.45;;